METAR Data
IDs: Format: Raw Decoded Include TAF

Data at: 2342 UTC 30 Jun 2022

METAR for:KSHD (Staunton/Shenandoah, VA, US)
Text:KSHD 302335Z AUTO 16006KT 10SM CLR 28/19 A3018 RMK AO2 T02800185
Temperature: 28.0°C ( 82°F)
Dewpoint: 18.5°C ( 65°F) [RH = 56%]
Pressure (altimeter):30.18 inches Hg (1022.1 mb)
Winds:from the SSE (160 degrees) at 7 MPH (6 knots; 3.1 m/s)
Visibility:10 or more sm (16+ km)
Ceiling:at least 12,000 feet AGL
Clouds:sky clear below 12,000 feet AGL
QC Flag:automated observation with no human augmentation

TAF for:KSHD (Staunton/Shenandoah, VA, US)
Text:No data found